createdAt,value
2022-08-07T00:03:21.602Z,2.08
2022-08-07T00:08:50.755Z,2.00
2022-08-07T00:14:16.495Z,2.67
2022-08-07T00:20:02.625Z,2.40
2022-08-07T00:25:27.784Z,2.30
2022-08-07T00:31:01.408Z,2.35
2022-08-07T00:36:29.732Z,2.30
2022-08-07T00:42:01.890Z,2.30
2022-08-07T00:48:09.291Z,2.72
2022-08-07T00:53:12.675Z,2.70
2022-08-07T00:58:37.703Z,2.35
2022-08-07T01:04:01.614Z,3.13
2022-08-07T01:10:05.227Z,2.78
2022-08-07T01:15:16.894Z,2.78
2022-08-07T01:20:57.473Z,2.50
2022-08-07T01:26:28.082Z,2.67
2022-08-07T01:31:52.553Z,2.83
2022-08-07T01:37:17.431Z,2.75
2022-08-07T01:42:56.974Z,2.92
2022-08-07T01:48:30.332Z,2.65
2022-08-07T01:54:12.706Z,2.70
2022-08-07T01:59:53.075Z,3.10
2022-08-07T02:05:42.993Z,2.97
2022-08-07T02:11:57.608Z,2.72
2022-08-07T02:17:00.495Z,2.80
2022-08-07T02:22:27.351Z,3.10
2022-08-07T02:27:53.199Z,3.08
2022-08-07T02:33:21.429Z,3.50
2022-08-07T02:38:50.970Z,2.83
2022-08-07T02:44:26.924Z,3.40
2022-08-07T02:49:57.692Z,3.33
2022-08-07T02:55:28.278Z,3.60
2022-08-07T03:01:18.842Z,3.35
2022-08-07T03:06:57.776Z,3.40
2022-08-07T03:12:31.046Z,3.20
2022-08-07T03:18:02.023Z,3.05
2022-08-07T03:23:33.552Z,3.72
2022-08-07T03:29:15.225Z,3.40
2022-08-07T03:34:47.584Z,3.00
2022-08-07T03:40:30.994Z,3.20
2022-08-07T03:46:03.629Z,3.70
2022-08-07T03:51:47.125Z,3.30
2022-08-07T03:58:33.469Z,2.88
2022-08-07T04:02:58.416Z,3.20
2022-08-07T04:08:28.531Z,2.78
2022-08-07T04:14:10.900Z,3.38
2022-08-07T04:19:51.848Z,2.90
2022-08-07T04:25:19.662Z,2.92
2022-08-07T04:30:55.434Z,3.20
2022-08-07T04:36:26.230Z,2.85
2022-08-07T04:41:51.093Z,3.05
2022-08-07T04:47:58.877Z,3.20
2022-08-07T04:53:27.668Z,3.20
2022-08-07T05:00:09.601Z,3.17
2022-08-07T05:04:58.268Z,2.95
2022-08-07T05:10:30.148Z,2.78
2022-08-07T05:15:55.372Z,3.25
2022-08-07T05:22:00.381Z,2.67
2022-08-07T05:27:14.521Z,3.10
2022-08-07T05:32:56.427Z,2.50
2022-08-07T05:38:59.732Z,2.70
2022-08-07T05:44:12.635Z,2.90
2022-08-07T05:49:41.486Z,2.42
2022-08-07T05:55:11.633Z,2.97
2022-08-07T06:00:41.595Z,2.50
2022-08-07T06:06:17.392Z,2.38
2022-08-07T06:11:46.652Z,2.70
2022-08-07T06:17:14.289Z,2.50
2022-08-07T06:22:40.717Z,2.70
2022-08-07T06:28:27.777Z,2.55
2022-08-07T06:33:54.887Z,2.53
2022-08-07T06:40:16.739Z,2.38
2022-08-07T06:45:11.319Z,2.65
2022-08-07T06:50:43.286Z,2.53
2022-08-07T06:56:38.751Z,2.60
2022-08-07T07:02:48.992Z,2.03
2022-08-07T07:08:12.272Z,2.50
2022-08-07T07:13:55.564Z,2.10
2022-08-07T07:19:55.341Z,2.20
2022-08-07T07:26:32.140Z,2.08
2022-08-07T07:31:02.257Z,2.00
2022-08-07T07:36:29.634Z,1.80
2022-08-07T07:42:08.770Z,1.67
2022-08-07T07:47:52.020Z,1.73
2022-08-07T07:53:25.651Z,1.60
2022-08-07T07:58:51.106Z,1.40
2022-08-07T08:04:19.971Z,1.30
2022-08-07T08:10:05.058Z,1.48
2022-08-07T08:15:58.181Z,1.20
2022-08-07T08:21:55.322Z,1.15
2022-08-07T08:27:23.613Z,1.20
2022-08-07T08:32:53.911Z,1.00
2022-08-07T08:38:21.386Z,0.98
2022-08-07T08:44:04.203Z,1.10
2022-08-07T08:50:02.661Z,1.10
2022-08-07T08:55:53.926Z,1.20
2022-08-07T09:01:29.954Z,1.30
2022-08-07T09:07:24.460Z,1.30
2022-08-07T09:12:57.982Z,1.20
2022-08-07T09:18:58.817Z,1.13
2022-08-07T09:24:58.566Z,1.20
2022-08-07T09:30:27.961Z,1.08
2022-08-07T09:36:07.746Z,1.38
2022-08-07T09:41:58.336Z,1.67
2022-08-07T09:47:59.942Z,1.60
2022-08-07T09:53:40.483Z,1.50
2022-08-07T09:59:37.116Z,1.67
2022-08-07T10:06:01.236Z,1.55
2022-08-07T10:12:00.969Z,1.70
2022-08-07T10:18:01.537Z,1.80
2022-08-07T10:24:06.514Z,1.55
2022-08-07T10:29:53.149Z,1.60
2022-08-07T10:35:25.811Z,2.00
2022-08-07T10:40:54.798Z,2.13
2022-08-07T10:46:26.889Z,1.70
2022-08-07T10:52:01.963Z,1.55
2022-08-07T10:57:56.286Z,1.55
2022-08-07T11:03:37.929Z,1.70
2022-08-07T11:10:09.922Z,1.98
2022-08-07T11:15:17.356Z,1.73
2022-08-07T11:20:50.764Z,1.80
2022-08-07T11:26:18.827Z,1.98
2022-08-07T11:31:51.822Z,1.40
2022-08-07T11:37:38.433Z,1.70
2022-08-07T11:43:29.543Z,2.47
2022-08-07T11:49:50.112Z,1.75
2022-08-07T11:56:24.975Z,1.80
2022-08-07T12:01:25.641Z,1.95
2022-08-07T12:07:27.277Z,2.47
2022-08-07T12:12:59.625Z,2.33
2022-08-07T12:18:29.878Z,2.35
2022-08-07T12:24:05.303Z,2.05
2022-08-07T12:29:40.378Z,2.20
2022-08-07T12:35:05.795Z,2.08
2022-08-07T12:40:47.551Z,2.00
2022-08-07T12:46:34.802Z,2.30
2022-08-07T12:52:13.840Z,2.30
2022-08-07T12:58:01.414Z,2.45
2022-08-07T13:04:02.334Z,2.30
2022-08-07T13:10:18.962Z,2.03
2022-08-07T13:15:42.696Z,2.28
2022-08-07T13:21:23.599Z,2.42
2022-08-07T13:27:08.357Z,1.98
2022-08-07T13:32:40.632Z,1.90
2022-08-07T13:38:15.079Z,2.05
2022-08-07T13:43:43.475Z,2.30
2022-08-07T13:50:35.435Z,2.15
2022-08-07T13:55:19.112Z,2.03
2022-08-07T14:00:54.110Z,2.10
2022-08-07T14:06:19.551Z,1.92
2022-08-07T14:11:53.607Z,2.40
2022-08-07T14:18:12.612Z,2.00
2022-08-07T14:23:18.023Z,1.98
2022-08-07T14:29:08.445Z,2.15
2022-08-07T14:34:46.020Z,2.13
2022-08-07T14:40:26.480Z,2.20
2022-08-07T14:45:55.305Z,1.90
2022-08-07T14:51:22.716Z,1.85
2022-08-07T14:56:50.788Z,1.75
2022-08-07T15:02:32.145Z,1.77
2022-08-07T15:07:59.956Z,2.20
2022-08-07T15:13:26.187Z,1.90
2022-08-07T15:19:04.019Z,2.58
2022-08-07T15:30:17.708Z,2.20
2022-08-07T15:36:01.910Z,2.08
2022-08-07T15:42:43.993Z,2.05
2022-08-07T15:48:00.162Z,2.08
2022-08-07T15:53:06.595Z,2.15
2022-08-07T15:58:38.339Z,2.03
2022-08-07T16:04:05.332Z,2.28
2022-08-07T16:09:51.901Z,2.30
2022-08-07T16:15:55.146Z,2.08
2022-08-07T16:21:53.539Z,2.17
2022-08-07T16:27:25.637Z,2.10
2022-08-07T16:34:03.122Z,1.85
2022-08-07T16:39:16.688Z,2.42
2022-08-07T16:46:21.120Z,2.13
2022-08-07T16:51:22.650Z,2.00
2022-08-07T16:56:53.251Z,2.20
2022-08-07T17:02:53.662Z,1.83
2022-08-07T17:09:04.191Z,2.55
2022-08-07T17:14:26.272Z,2.00
2022-08-07T17:20:13.864Z,2.05
2022-08-07T17:25:52.573Z,2.15
2022-08-07T17:31:21.938Z,2.35
2022-08-07T17:36:59.990Z,2.58
2022-08-07T17:42:58.690Z,2.00
2022-08-07T17:48:31.061Z,2.17
2022-08-07T17:54:11.508Z,2.13
2022-08-07T17:59:44.505Z,1.92
2022-08-07T18:05:21.181Z,1.98
2022-08-07T18:12:07.996Z,2.30
2022-08-07T18:16:57.417Z,2.30
2022-08-07T18:22:28.958Z,2.38
2022-08-07T18:28:34.489Z,2.47
2022-08-07T18:34:37.937Z,2.03
2022-08-07T18:40:18.519Z,2.22
2022-08-07T18:46:24.620Z,2.38
2022-08-07T18:52:51.729Z,1.97
2022-08-07T18:57:58.488Z,1.80
2022-08-07T19:03:37.917Z,1.67
2022-08-07T19:09:57.509Z,2.03
2022-08-07T19:16:03.251Z,1.80
2022-08-07T19:21:46.584Z,1.90
2022-08-07T19:28:29.276Z,2.22
2022-08-07T19:32:46.143Z,1.95
2022-08-07T19:38:17.151Z,1.52
2022-08-07T19:43:51.991Z,1.55
2022-08-07T19:49:57.210Z,1.60
2022-08-07T19:55:13.321Z,1.40
2022-08-07T20:00:54.054Z,1.48
2022-08-07T20:06:30.481Z,1.20
2022-08-07T20:12:22.665Z,1.48
2022-08-07T20:17:43.843Z,1.45
2022-08-07T20:23:39.893Z,2.28
2022-08-07T20:29:01.566Z,1.48
2022-08-07T20:34:50.154Z,1.70
2022-08-07T20:40:33.172Z,2.45
2022-08-07T20:46:28.443Z,1.80
2022-08-07T20:51:49.066Z,2.08
2022-08-07T20:57:15.121Z,1.63
2022-08-07T21:03:01.276Z,1.30
2022-08-07T21:08:36.953Z,1.08
2022-08-07T21:14:32.610Z,1.25
2022-08-07T21:20:05.214Z,1.58
2022-08-07T21:25:43.669Z,1.13
2022-08-07T21:31:15.151Z,1.33
2022-08-07T21:36:50.319Z,1.33
2022-08-07T21:42:41.938Z,1.52
2022-08-07T21:48:28.917Z,1.13
2022-08-07T21:54:06.559Z,1.38
2022-08-07T22:00:04.012Z,1.23
2022-08-07T22:05:44.556Z,1.13
2022-08-07T22:11:17.653Z,1.50
2022-08-07T22:16:47.716Z,1.30
2022-08-07T22:22:27.888Z,1.40
2022-08-07T22:28:19.894Z,1.48
2022-08-07T22:33:56.678Z,1.20
2022-08-07T22:39:28.709Z,1.20
2022-08-07T22:44:58.785Z,1.35
2022-08-07T22:50:34.852Z,1.65
2022-08-07T22:56:01.913Z,1.30
2022-08-07T23:01:49.976Z,1.50
2022-08-07T23:07:26.620Z,1.50
2022-08-07T23:13:21.988Z,1.50
2022-08-07T23:19:16.481Z,1.57
2022-08-07T23:24:48.602Z,1.27
2022-08-07T23:30:37.394Z,1.35
2022-08-07T23:36:07.658Z,1.42
2022-08-07T23:41:47.436Z,1.35
2022-08-07T23:47:46.738Z,1.25
2022-08-07T23:53:49.321Z,1.38
